createdAt,value
2022-12-14T00:03:07.372Z,17.13
2022-12-14T00:08:36.748Z,19.53
2022-12-14T00:14:04.050Z,15.60
2022-12-14T00:19:26.607Z,24.07
2022-12-14T00:24:49.141Z,14.63
2022-12-14T00:30:16.649Z,19.63
2022-12-14T00:35:38.991Z,16.67
2022-12-14T00:41:02.265Z,21.67
2022-12-14T00:46:24.932Z,19.30
2022-12-14T00:51:47.305Z,19.07
2022-12-14T00:57:10.415Z,16.20
2022-12-14T01:02:32.565Z,18.17
2022-12-14T01:07:57.805Z,20.20
2022-12-14T01:13:20.085Z,22.40
2022-12-14T01:18:43.389Z,18.93
2022-12-14T01:24:06.360Z,20.43
2022-12-14T01:29:28.777Z,19.37
2022-12-14T01:34:51.880Z,21.13
2022-12-14T01:40:14.122Z,26.80
2022-12-14T01:45:36.366Z,18.03
2022-12-14T01:50:58.663Z,17.53
2022-12-14T01:56:21.146Z,22.17
2022-12-14T02:01:44.032Z,16.87
2022-12-14T02:07:13.256Z,12.47
2022-12-14T02:12:41.197Z,18.33
2022-12-14T02:18:09.113Z,20.30
2022-12-14T02:23:40.037Z,18.20
2022-12-14T02:29:34.456Z,18.77
2022-12-14T02:35:18.010Z,13.27
2022-12-14T02:41:03.499Z,15.87
2022-12-14T02:47:03.126Z,18.13
2022-12-14T02:53:03.283Z,24.43
2022-12-14T02:58:40.836Z,16.33
2022-12-14T03:04:03.945Z,15.37
2022-12-14T03:09:29.975Z,26.03
2022-12-14T03:14:54.746Z,20.60
2022-12-14T03:20:24.177Z,13.20
2022-12-14T03:26:02.370Z,15.90
2022-12-14T03:31:35.199Z,23.77
2022-12-14T03:37:08.379Z,26.93
2022-12-14T03:42:35.735Z,20.23
2022-12-14T03:48:22.870Z,14.80
2022-12-14T03:54:00.482Z,17.97
2022-12-14T03:59:43.635Z,20.67
2022-12-14T04:05:32.057Z,16.07
2022-12-14T04:11:17.319Z,19.50
2022-12-14T04:17:02.321Z,11.83
2022-12-14T04:22:30.085Z,15.33
2022-12-14T04:28:06.078Z,19.27
2022-12-14T04:33:47.807Z,18.80
2022-12-14T04:39:17.068Z,13.00
2022-12-14T04:44:44.653Z,12.40
2022-12-14T04:50:18.937Z,9.67
2022-12-14T04:55:53.465Z,20.57
2022-12-14T05:01:40.452Z,15.30
2022-12-14T05:07:18.206Z,19.13
2022-12-14T05:12:53.194Z,18.40
2022-12-14T05:18:15.800Z,14.87
2022-12-14T05:23:38.205Z,15.90
2022-12-14T05:29:00.454Z,12.13
2022-12-14T05:34:23.719Z,20.33
2022-12-14T05:39:46.097Z,20.40
2022-12-14T05:45:11.318Z,17.87
2022-12-14T05:50:33.753Z,18.27
2022-12-14T05:55:56.063Z,14.73
2022-12-14T06:01:19.833Z,12.77
2022-12-14T06:06:42.850Z,25.30
2022-12-14T06:12:05.287Z,22.40
2022-12-14T06:17:28.986Z,11.00
2022-12-14T06:22:51.402Z,18.17
2022-12-14T06:28:13.883Z,14.63
2022-12-14T06:33:36.306Z,16.10
2022-12-14T06:39:02.943Z,16.20
2022-12-14T06:44:25.109Z,17.57
2022-12-14T06:49:47.385Z,21.67
2022-12-14T06:55:11.317Z,17.67
2022-12-14T07:00:33.736Z,23.37
2022-12-14T07:05:58.184Z,18.97
2022-12-14T07:11:21.128Z,16.47
2022-12-14T07:16:47.733Z,19.50
2022-12-14T07:22:10.489Z,24.57
2022-12-14T07:27:32.976Z,19.97
2022-12-14T07:32:55.207Z,14.57
2022-12-14T07:38:18.782Z,15.03
2022-12-14T07:43:43.047Z,17.10
2022-12-14T07:49:06.200Z,16.87
2022-12-14T07:54:28.979Z,16.97
2022-12-14T07:59:57.126Z,21.13
2022-12-14T08:05:19.872Z,21.07
2022-12-14T08:10:42.311Z,19.77
2022-12-14T08:16:10.376Z,14.20
2022-12-14T08:21:33.029Z,14.50
2022-12-14T08:26:55.348Z,20.90
2022-12-14T08:32:19.174Z,23.63
2022-12-14T08:37:47.225Z,16.40
2022-12-14T08:43:10.285Z,13.20
2022-12-14T08:48:33.307Z,20.67
2022-12-14T08:53:57.083Z,26.77
2022-12-14T08:59:36.993Z,21.37
2022-12-14T09:05:02.930Z,15.73
2022-12-14T09:10:25.516Z,21.77
2022-12-14T09:16:18.777Z,11.07
2022-12-14T09:21:41.408Z,14.90
2022-12-14T09:27:03.974Z,29.40
2022-12-14T09:32:28.260Z,20.43
2022-12-14T09:37:50.424Z,13.70
2022-12-14T09:43:42.287Z,14.73
2022-12-14T09:49:04.856Z,20.93
2022-12-14T09:54:31.021Z,18.70
2022-12-14T09:59:56.828Z,22.83
2022-12-14T10:05:33.054Z,17.23
2022-12-14T10:11:23.114Z,21.63
2022-12-14T10:17:21.154Z,21.57
2022-12-14T10:22:47.738Z,18.70
2022-12-14T10:28:30.476Z,21.43
2022-12-14T10:33:58.154Z,22.40
2022-12-14T10:39:32.451Z,16.50
2022-12-14T10:45:43.321Z,17.90
2022-12-14T10:51:11.244Z,17.83
2022-12-14T10:56:35.999Z,19.17
2022-12-14T11:02:10.432Z,18.67
2022-12-14T11:07:33.244Z,21.40
2022-12-14T11:13:13.730Z,18.57
2022-12-14T11:18:35.952Z,20.40
2022-12-14T11:23:58.468Z,19.03
2022-12-14T11:29:38.194Z,23.80
2022-12-14T11:35:00.540Z,28.40
2022-12-14T11:40:25.454Z,24.37
2022-12-14T11:45:51.652Z,22.67
2022-12-14T11:51:14.253Z,22.50
2022-12-14T11:56:36.858Z,19.10
2022-12-14T12:02:20.654Z,22.67
2022-12-14T12:07:52.266Z,24.93
2022-12-14T12:13:31.806Z,25.40
2022-12-14T12:19:14.869Z,21.53
2022-12-14T12:25:24.198Z,25.13
2022-12-14T12:30:42.346Z,24.23
2022-12-14T12:36:05.959Z,23.60
2022-12-14T12:41:32.868Z,21.40
2022-12-14T12:47:38.464Z,23.87
2022-12-14T12:53:04.335Z,24.17
2022-12-14T12:58:33.361Z,20.70
2022-12-14T13:04:02.479Z,21.27
2022-12-14T13:09:44.488Z,19.60
2022-12-14T13:15:20.854Z,21.93
2022-12-14T13:20:43.397Z,22.60
2022-12-14T13:26:56.726Z,23.97
2022-12-14T13:32:18.465Z,26.17
2022-12-14T13:37:59.206Z,24.13
2022-12-14T13:43:51.484Z,27.30
2022-12-14T13:49:22.410Z,24.00
2022-12-14T13:54:47.349Z,33.13
2022-12-14T14:00:45.549Z,24.67
2022-12-14T14:06:35.797Z,35.77
2022-12-14T14:11:59.771Z,28.47
2022-12-14T14:17:36.617Z,31.87
2022-12-14T14:23:14.320Z,27.23
2022-12-14T14:28:38.056Z,21.80
2022-12-14T14:34:00.946Z,29.63
2022-12-14T14:40:07.229Z,26.67
2022-12-14T14:45:31.302Z,30.70
2022-12-14T14:51:26.662Z,32.87
2022-12-14T14:56:50.537Z,29.77
2022-12-14T15:02:29.684Z,35.60
2022-12-14T15:07:55.208Z,31.83
2022-12-14T15:13:25.133Z,27.30
2022-12-14T15:18:47.740Z,30.37
2022-12-14T15:24:13.939Z,27.37
2022-12-14T15:29:36.462Z,32.33
2022-12-14T15:35:02.445Z,30.80
2022-12-14T15:40:30.549Z,28.07
2022-12-14T15:45:56.460Z,24.20
2022-12-14T15:51:18.849Z,32.20
2022-12-14T15:56:50.090Z,32.10
2022-12-14T16:02:24.472Z,30.60
2022-12-14T16:07:54.324Z,38.60
2022-12-14T16:13:22.993Z,40.50
2022-12-14T16:18:51.101Z,46.40
2022-12-14T16:24:25.359Z,46.60
2022-12-14T16:30:19.277Z,41.43
2022-12-14T16:35:41.714Z,47.07
2022-12-14T16:41:05.238Z,123.57
2022-12-14T16:46:27.738Z,88.57
2022-12-14T16:52:07.379Z,64.47
2022-12-14T16:57:30.365Z,51.53
2022-12-14T17:02:59.928Z,51.87
2022-12-14T17:08:23.648Z,40.87
2022-12-14T17:13:46.142Z,53.43
2022-12-14T17:19:30.154Z,55.40
2022-12-14T17:24:54.900Z,58.77
2022-12-14T17:30:20.165Z,54.00
2022-12-14T17:35:42.716Z,69.37
2022-12-14T17:41:06.364Z,58.97
2022-12-14T17:46:29.557Z,37.70
2022-12-14T17:51:52.110Z,29.60
2022-12-14T17:57:23.449Z,36.97
2022-12-14T18:02:46.026Z,39.23
2022-12-14T18:08:09.971Z,43.50
2022-12-14T18:13:34.296Z,42.40
2022-12-14T18:18:58.170Z,27.87
2022-12-14T18:24:25.688Z,38.23
2022-12-14T18:29:48.233Z,47.00
2022-12-14T18:35:21.650Z,47.40
2022-12-14T18:40:49.414Z,42.43
2022-12-14T18:46:12.483Z,44.50
2022-12-14T18:51:35.064Z,52.77
2022-12-14T18:56:57.199Z,66.73
2022-12-14T19:02:19.928Z,59.80
2022-12-14T19:07:44.128Z,50.47
2022-12-14T19:13:07.585Z,61.60
2022-12-14T19:18:30.889Z,58.43
2022-12-14T19:23:53.390Z,42.07
2022-12-14T19:29:16.104Z,51.07
2022-12-14T19:34:38.536Z,44.80
2022-12-14T19:40:02.513Z,46.67
2022-12-14T19:45:25.026Z,63.73
2022-12-14T19:50:49.829Z,48.73
2022-12-14T19:56:15.934Z,51.90
2022-12-14T20:01:40.828Z,41.07
2022-12-14T20:07:08.148Z,43.87
2022-12-14T20:12:34.299Z,39.20
2022-12-14T20:17:57.125Z,37.23
2022-12-14T20:23:21.645Z,39.20
2022-12-14T20:28:47.689Z,44.10
2022-12-14T20:34:11.382Z,46.20
2022-12-14T20:39:33.653Z,40.10
2022-12-14T20:44:56.165Z,38.67
2022-12-14T20:50:18.524Z,56.03
2022-12-14T20:55:40.924Z,45.63
2022-12-14T21:01:13.395Z,36.10
2022-12-14T21:06:41.275Z,46.07
2022-12-14T21:12:22.657Z,42.67
2022-12-14T21:17:44.961Z,40.93
2022-12-14T21:23:07.301Z,42.70
2022-12-14T21:28:32.298Z,40.70
2022-12-14T21:33:55.466Z,45.37
2022-12-14T21:39:19.288Z,40.07
2022-12-14T21:44:45.218Z,69.87
2022-12-14T21:50:09.673Z,46.10
2022-12-14T21:55:32.246Z,57.43
2022-12-14T22:00:54.843Z,52.87
2022-12-14T22:06:17.141Z,71.87
2022-12-14T22:11:39.581Z,48.27
2022-12-14T22:17:03.261Z,35.87
2022-12-14T22:22:25.705Z,49.33
2022-12-14T22:27:49.745Z,54.40
2022-12-14T22:33:12.373Z,51.87
2022-12-14T22:38:34.547Z,38.87
2022-12-14T22:43:58.821Z,32.13
2022-12-14T22:49:21.505Z,40.13
2022-12-14T22:54:44.117Z,50.43
2022-12-14T23:00:19.016Z,44.50
2022-12-14T23:05:41.826Z,44.87
2022-12-14T23:11:22.826Z,39.10
2022-12-14T23:17:03.970Z,46.33
2022-12-14T23:22:45.582Z,40.20
2022-12-14T23:28:31.298Z,47.30
2022-12-14T23:34:12.797Z,41.27
2022-12-14T23:39:54.455Z,37.13
2022-12-14T23:45:35.232Z,30.60
2022-12-14T23:51:15.818Z,35.30
2022-12-14T23:56:56.755Z,46.80
